Aviation Digital Data Service (ADDS)

Output produced by METARs form (0803 UTC 14 February 2016)
found at http://aviationweather.gov/adds/metars/
 
KISP 140525Z 1406/1506 30017G26KT P6SM FEW250 
     FM141500 33014G22KT P6SM SKC 
     FM142000 31010G16KT P6SM SKC 
     FM142300 30005KT P6SM SKC 
     FM150200 00000KT P6SM SKC